Time;durP1;ratioP1;P1;durP2;ratioP2;P2;SDS_P1;SDS_P2;PMS_P1;PMS_P2;Temp;Humidity;BMP_temperature;BMP_pressure;BME280_temperature;BME280_humidity;BME280_pressure;Samples;Min_cycle;Max_cycle;Signal;HPM_P1;HPM_P2
2022/06/04 00:01:00;;;;;;;1.90;1.80;;;22.60;98.70;;;;;;4247688;27;20262;-74
2022/06/04 00:03:02;;;;;;;2.67;2.10;;;22.60;98.50;;;;;;4247300;27;20209;-74
2022/06/04 00:05:05;;;;;;;2.60;2.05;;;22.60;99.10;;;;;;4247495;27;20729;-74
2022/06/04 00:07:08;;;;;;;2.10;1.90;;;22.60;99.10;;;;;;4246591;27;20237;-74
2022/06/04 00:09:11;;;;;;;2.80;2.10;;;22.60;98.60;;;;;;4247198;27;20217;-74
2022/06/04 00:15:55;;;;;;;2.15;1.95;;;22.60;99.30;;;;;;4247431;27;20205;-74
2022/06/04 00:17:58;;;;;;;2.15;1.88;;;22.60;99.00;;;;;;4246457;27;20213;-74
2022/06/04 00:20:01;;;;;;;2.15;1.95;;;22.60;98.90;;;;;;4246726;27;20217;-73
2022/06/04 00:22:04;;;;;;;2.15;1.92;;;22.60;99.40;;;;;;4247067;27;20569;-74
2022/06/04 00:24:07;;;;;;;2.03;1.70;;;22.60;99.00;;;;;;4245326;27;20217;-74
2022/06/04 00:26:13;;;;;;;2.42;2.00;;;22.60;99.40;;;;;;4247182;27;20209;-74
2022/06/04 00:28:15;;;;;;;2.22;1.95;;;22.60;99.50;;;;;;4240422;27;20217;-74
2022/06/04 00:30:19;;;;;;;1.75;1.50;;;22.50;99.30;;;;;;4243940;27;20282;-74
2022/06/04 00:32:22;;;;;;;2.00;1.80;;;22.60;99.50;;;;;;4246202;27;20281;-74
2022/06/04 00:34:25;;;;;;;3.65;2.00;;;22.50;99.20;;;;;;4246468;27;20266;-74
2022/06/04 00:36:27;;;;;;;2.50;1.80;;;22.50;99.30;;;;;;4246612;27;20270;-74
2022/06/04 00:38:31;;;;;;;2.67;2.00;;;22.50;99.30;;;;;;4246619;27;20217;-74
2022/06/04 00:40:46;;;;;;;1.90;1.80;;;22.50;99.30;;;;;;4246265;27;20270;-74
2022/06/04 00:42:48;;;;;;;2.13;1.88;;;22.50;99.60;;;;;;4237209;27;20209;-73
2022/06/04 00:45:27;;;;;;;2.13;1.92;;;22.50;99.30;;;;;;4244776;27;20624;-74
2022/06/04 00:47:30;;;;;;;2.22;1.90;;;22.50;99.30;;;;;;4246654;27;20262;-74
2022/06/04 00:49:33;;;;;;;1.88;1.75;;;22.50;99.60;;;;;;4246549;27;20213;-74
2022/06/04 00:51:36;;;;;;;2.42;1.65;;;22.50;99.60;;;;;;4246393;27;20278;-74
2022/06/04 00:53:39;;;;;;;1.88;1.77;;;22.50;99.60;;;;;;4246444;27;20224;-74
2022/06/04 00:55:47;;;;;;;2.90;1.90;;;22.50;99.90;;;;;;4246244;27;20217;-74
2022/06/04 00:58:09;;;;;;;2.28;1.98;;;22.50;99.60;;;;;;4246409;27;20265;-74
2022/06/04 01:00:17;;;;;;;2.00;1.80;;;22.50;99.60;;;;;;4238844;27;20213;-74
2022/06/04 01:02:27;;;;;;;2.17;1.98;;;22.50;99.90;;;;;;4240084;27;20212;-74
2022/06/04 01:04:50;;;;;;;1.77;1.67;;;22.50;99.80;;;;;;4246479;27;20212;-74
2022/06/04 01:06:59;;;;;;;2.22;1.92;;;22.50;99.90;;;;;;4246019;27;20285;-74
2022/06/04 01:09:52;;;;;;;2.00;1.80;;;22.50;99.90;;;;;;4246459;27;20292;-74
2022/06/04 01:12:11;;;;;;;2.08;1.75;;;22.50;99.90;;;;;;4160649;28;20212;-74
2022/06/04 01:14:24;;;;;;;2.00;1.80;;;22.50;99.70;;;;;;4216236;27;20241;-74
2022/06/04 01:16:33;;;;;;;2.00;1.80;;;22.50;99.60;;;;;;4241031;27;20246;-74
2022/06/04 01:18:42;;;;;;;2.83;2.00;;;22.50;99.80;;;;;;4240922;27;20565;-74
2022/06/04 01:20:57;;;;;;;2.80;1.88;;;22.50;99.90;;;;;;4246303;27;20209;-74
2022/06/04 01:23:31;;;;;;;2.78;1.83;;;22.50;99.90;;;;;;4245979;27;20262;-74
2022/06/04 01:25:47;;;;;;;2.10;1.90;;;22.50;99.90;;;;;;4246005;27;20277;-74
2022/06/04 01:27:55;;;;;;;1.70;1.60;;;22.40;99.90;;;;;;4243503;27;20204;-74
2022/06/04 01:30:03;;;;;;;1.80;1.65;;;22.40;99.90;;;;;;4245961;27;20613;-74
2022/06/04 01:32:09;;;;;;;2.20;2.00;;;22.50;99.90;;;;;;4243340;27;20242;-74
2022/06/04 01:34:16;;;;;;;1.58;1.48;;;22.40;99.90;;;;;;4246080;28;20754;-74
2022/06/04 01:36:32;;;;;;;1.90;1.73;;;22.40;99.90;;;;;;4245733;28;20209;-74
2022/06/04 01:38:37;;;;;;;1.98;1.88;;;22.40;99.90;;;;;;4246025;27;20217;-74
2022/06/04 01:43:06;;;;;;;2.65;1.90;;;22.40;99.90;;;;;;4234672;28;20198;-74
2022/06/04 01:45:11;;;;;;;3.33;1.90;;;22.40;99.90;;;;;;4244394;27;20269;-74
2022/06/04 01:47:15;;;;;;;2.35;1.88;;;22.40;99.90;;;;;;4246088;27;20220;-74
2022/06/04 01:49:22;;;;;;;1.70;1.60;;;22.40;99.90;;;;;;4245882;27;20225;-74
2022/06/04 01:51:29;;;;;;;2.05;1.60;;;22.40;99.90;;;;;;4245914;28;20221;-74
2022/06/04 01:53:36;;;;;;;2.00;1.70;;;22.40;99.90;;;;;;4232808;27;20232;-74
2022/06/04 01:55:44;;;;;;;2.80;1.85;;;22.40;99.90;;;;;;4245828;28;20205;-74
2022/06/04 01:57:51;;;;;;;1.75;1.65;;;22.40;99.90;;;;;;4245728;27;20204;-74
2022/06/04 01:59:59;;;;;;;2.95;1.80;;;22.40;99.90;;;;;;4236892;27;20209;-74
2022/06/04 02:02:05;;;;;;;2.08;1.88;;;22.40;99.90;;;;;;4245497;27;20257;-74
2022/06/04 02:04:11;;;;;;;3.05;1.80;;;22.40;99.90;;;;;;4245805;27;20213;-74
2022/06/04 02:06:18;;;;;;;2.25;2.05;;;22.40;99.90;;;;;;4245718;27;20718;-74
2022/06/04 02:08:25;;;;;;;2.03;1.83;;;22.30;99.90;;;;;;4245775;27;20209;-74
2022/06/04 02:10:32;;;;;;;2.95;1.75;;;22.40;99.90;;;;;;4246060;27;20273;-74
2022/06/04 02:12:35;;;;;;;1.70;1.60;;;22.40;99.90;;;;;;4246178;27;20912;-74
2022/06/04 02:14:38;;;;;;;2.03;1.70;;;22.30;99.90;;;;;;4245679;28;20646;-74
2022/06/04 02:16:46;;;;;;;2.35;1.75;;;22.40;99.90;;;;;;4234375;27;20218;-74
2022/06/04 02:18:49;;;;;;;2.40;1.80;;;22.30;99.90;;;;;;4245602;27;20340;-74
2022/06/04 02:20:51;;;;;;;2.15;1.60;;;22.30;99.90;;;;;;4242732;27;20269;-73
2022/06/04 02:22:55;;;;;;;1.77;1.60;;;22.30;99.90;;;;;;4244542;28;20265;-74
2022/06/04 02:24:59;;;;;;;2.40;1.98;;;22.30;99.90;;;;;;4245869;27;20277;-74
2022/06/04 02:27:02;;;;;;;2.35;1.98;;;22.30;99.90;;;;;;4245290;27;20220;-74
2022/06/04 02:29:06;;;;;;;1.88;1.67;;;22.30;99.90;;;;;;4246283;27;20265;-74
2022/06/04 02:31:16;;;;;;;3.15;1.80;;;22.30;99.90;;;;;;4248884;27;20221;-74
2022/06/04 02:33:29;;;;;;;2.15;1.70;;;22.40;99.90;;;;;;4248953;27;20248;-74
2022/06/04 02:35:37;;;;;;;2.63;1.67;;;22.30;99.90;;;;;;4243346;27;20217;-74
2022/06/04 02:37:48;;;;;;;3.25;2.00;;;22.30;99.90;;;;;;4248859;27;20216;-74
2022/06/04 02:39:55;;;;;;;1.90;1.70;;;22.40;99.90;;;;;;4248685;27;20257;-74
2022/06/04 02:42:04;;;;;;;3.05;1.80;;;22.30;99.90;;;;;;4246540;27;20261;-74
2022/06/04 02:44:10;;;;;;;2.33;1.58;;;22.30;99.90;;;;;;4240814;27;20230;-74
2022/06/04 02:46:23;;;;;;;3.38;1.80;;;22.30;99.90;;;;;;4242814;27;20213;-74
2022/06/04 02:48:31;;;;;;;1.83;1.73;;;22.30;99.90;;;;;;4248209;27;20569;-74
2022/06/04 02:50:38;;;;;;;1.77;1.67;;;22.20;99.90;;;;;;4248418;27;20598;-74
2022/06/04 02:52:41;;;;;;;1.85;1.75;;;22.30;99.90;;;;;;4248457;27;20349;-74
2022/06/04 02:54:50;;;;;;;2.88;1.85;;;22.30;99.90;;;;;;4248289;27;20232;-74
2022/06/04 02:56:54;;;;;;;2.10;1.90;;;22.30;99.90;;;;;;4243326;27;20216;-74
2022/06/04 02:59:01;;;;;;;2.10;1.90;;;22.30;99.90;;;;;;4247582;27;20653;-74
2022/06/04 03:01:05;;;;;;;2.17;1.98;;;22.30;99.90;;;;;;4248115;27;20246;-74
2022/06/04 03:03:11;;;;;;;2.08;1.70;;;22.30;99.90;;;;;;4247570;27;20221;-74
2022/06/04 03:05:18;;;;;;;3.00;1.60;;;22.30;99.90;;;;;;4243088;27;20233;-74
2022/06/04 03:07:22;;;;;;;1.73;1.63;;;22.20;99.90;;;;;;4247690;27;20233;-74
2022/06/04 03:09:24;;;;;;;2.05;1.85;;;22.30;99.90;;;;;;4247461;27;20218;-74
2022/06/04 03:11:26;;;;;;;2.15;1.83;;;22.20;99.90;;;;;;4248153;27;20722;-74
2022/06/04 03:13:29;;;;;;;1.83;1.73;;;22.30;99.90;;;;;;4248199;27;20282;-74
2022/06/04 03:15:32;;;;;;;2.55;1.85;;;22.20;99.90;;;;;;4245073;27;20259;-74
2022/06/04 03:17:34;;;;;;;1.60;1.50;;;22.20;99.90;;;;;;4245831;27;20250;-74
2022/06/04 03:19:37;;;;;;;3.03;1.83;;;22.20;99.90;;;;;;4248271;27;20266;-74
2022/06/04 03:21:42;;;;;;;2.00;1.80;;;22.30;99.90;;;;;;4248179;27;20221;-74
2022/06/04 03:23:44;;;;;;;1.90;1.70;;;22.20;99.90;;;;;;4247847;27;20262;-74
2022/06/04 03:25:46;;;;;;;2.50;1.80;;;22.20;99.90;;;;;;4248211;27;20254;-74
2022/06/04 03:27:49;;;;;;;2.28;1.70;;;22.20;99.90;;;;;;4248268;27;20704;-74
2022/06/04 03:29:52;;;;;;;2.78;1.85;;;22.20;99.90;;;;;;4247777;27;20205;-74
2022/06/04 03:31:54;;;;;;;3.80;1.88;;;22.20;99.90;;;;;;4247798;27;20239;-74
2022/06/04 03:33:57;;;;;;;1.80;1.70;;;22.20;99.90;;;;;;4247558;27;20241;-74
2022/06/04 03:35:59;;;;;;;3.22;1.73;;;22.20;99.90;;;;;;4247845;27;20682;-74
2022/06/04 03:38:03;;;;;;;2.90;1.77;;;22.20;99.90;;;;;;4247783;27;20221;-74
2022/06/04 03:40:08;;;;;;;3.85;1.73;;;22.20;99.90;;;;;;4248061;27;20213;-74
2022/06/04 03:42:10;;;;;;;2.13;1.88;;;22.20;99.90;;;;;;4235867;27;20263;-74
2022/06/04 03:44:12;;;;;;;2.40;1.60;;;22.20;99.90;;;;;;4247463;27;20213;-74
2022/06/04 03:46:14;;;;;;;1.73;1.63;;;22.20;99.90;;;;;;4247459;27;20217;-74
2022/06/04 03:48:17;;;;;;;2.03;1.83;;;22.20;99.90;;;;;;4247451;27;20217;-74
2022/06/04 03:50:20;;;;;;;2.28;1.70;;;22.20;99.90;;;;;;4242991;27;20727;-74
2022/06/04 03:52:22;;;;;;;3.20;1.75;;;22.20;99.90;;;;;;4242000;27;20288;-74
2022/06/04 03:56:42;;;;;;;1.60;1.50;;;22.20;99.90;;;;;;4243810;27;20213;-74
2022/06/04 03:58:45;;;;;;;1.60;1.50;;;22.20;99.90;;;;;;4247307;27;20216;-74
2022/06/04 04:00:47;;;;;;;1.83;1.67;;;22.10;99.90;;;;;;4247373;27;20238;-74
2022/06/04 04:02:53;;;;;;;2.47;1.70;;;22.20;99.90;;;;;;4247204;27;20565;-74
2022/06/04 04:04:55;;;;;;;3.05;1.60;;;22.10;99.90;;;;;;4247711;27;20254;-74
2022/06/04 04:06:58;;;;;;;1.50;1.40;;;22.10;99.90;;;;;;4239336;27;20258;-74
2022/06/04 04:09:01;;;;;;;2.00;1.70;;;22.10;99.90;;;;;;4247104;27;20254;-74
2022/06/04 04:11:06;;;;;;;2.03;1.73;;;22.10;99.90;;;;;;4233585;27;20666;-74
2022/06/04 04:13:09;;;;;;;2.22;1.67;;;22.10;99.90;;;;;;4235727;27;20217;-74
2022/06/04 04:15:13;;;;;;;1.75;1.60;;;22.10;99.90;;;;;;4246275;27;20649;-74
2022/06/04 04:17:15;;;;;;;1.52;1.42;;;22.10;99.90;;;;;;4242770;27;20582;-74
2022/06/04 04:19:17;;;;;;;1.77;1.67;;;22.10;99.90;;;;;;4247287;27;20217;-74
2022/06/04 04:21:22;;;;;;;3.17;1.65;;;22.10;99.90;;;;;;4247195;27;20224;-74
2022/06/04 04:23:24;;;;;;;2.33;1.40;;;22.10;99.90;;;;;;4247269;27;20625;-74
2022/06/04 04:25:30;;;;;;;2.50;1.60;;;22.10;99.90;;;;;;4247003;27;20722;-74
2022/06/04 04:27:34;;;;;;;1.60;1.50;;;22.10;99.90;;;;;;4234070;27;20217;-74
2022/06/04 04:29:36;;;;;;;2.65;1.60;;;22.10;99.90;;;;;;4246785;27;20213;-74
2022/06/04 04:31:38;;;;;;;1.67;1.58;;;22.10;99.90;;;;;;4246739;27;20254;-74
2022/06/04 04:33:41;;;;;;;1.85;1.48;;;22.10;99.90;;;;;;4246565;27;20213;-74
2022/06/04 04:35:45;;;;;;;1.92;1.75;;;22.10;99.90;;;;;;4246693;27;20254;-74
2022/06/04 04:37:47;;;;;;;2.40;1.60;;;22.10;99.90;;;;;;4246710;27;20208;-74
2022/06/04 04:39:50;;;;;;;3.47;1.80;;;22.10;99.90;;;;;;4246734;27;20261;-74
2022/06/04 04:41:52;;;;;;;1.77;1.67;;;22.10;99.90;;;;;;4244806;27;20653;-74
2022/06/04 04:43:56;;;;;;;2.67;1.70;;;22.10;99.90;;;;;;4231848;27;20615;-74
2022/06/04 04:46:02;;;;;;;1.60;1.50;;;22.10;99.90;;;;;;4238744;27;20202;-74
2022/06/04 04:48:05;;;;;;;1.85;1.70;;;22.10;99.90;;;;;;4242075;27;20208;-74
2022/06/04 04:50:14;;;;;;;2.40;1.90;;;22.10;99.90;;;;;;4246582;27;20221;-74
2022/06/04 04:52:16;;;;;;;2.47;1.60;;;22.10;99.90;;;;;;4246330;27;20213;-74
2022/06/04 04:54:19;;;;;;;2.03;1.75;;;22.10;99.90;;;;;;4238152;27;20217;-74
2022/06/04 04:56:23;;;;;;;2.55;1.60;;;22.10;99.90;;;;;;4246563;27;20209;-74
2022/06/04 04:58:26;;;;;;;1.65;1.52;;;22.10;99.90;;;;;;4246756;27;20216;-74
2022/06/04 05:00:30;;;;;;;1.60;1.50;;;22.10;99.90;;;;;;4246124;27;20627;-74
2022/06/04 05:02:32;;;;;;;2.88;1.80;;;22.10;99.90;;;;;;4246212;27;20278;-74
2022/06/04 05:04:35;;;;;;;1.95;1.40;;;22.10;99.90;;;;;;4246080;27;20221;-74
2022/06/04 05:06:37;;;;;;;1.90;1.70;;;22.10;99.90;;;;;;4245869;27;20236;-74
2022/06/04 05:08:40;;;;;;;2.17;1.40;;;22.10;99.90;;;;;;4246390;27;20686;-74
2022/06/04 05:10:43;;;;;;;1.90;1.50;;;22.10;99.90;;;;;;4246688;27;20702;-74
2022/06/04 05:12:46;;;;;;;1.50;1.40;;;22.10;99.90;;;;;;4245727;27;20221;-74
2022/06/04 05:14:48;;;;;;;1.65;1.55;;;22.00;99.90;;;;;;4239353;27;20286;-74
2022/06/04 05:16:52;;;;;;;2.13;1.73;;;22.10;99.90;;;;;;4244053;27;20209;-74
2022/06/04 05:18:54;;;;;;;2.10;1.63;;;22.00;99.90;;;;;;4245998;27;20270;-74
2022/06/04 05:21:07;;;;;;;1.38;1.25;;;22.10;99.90;;;;;;4246050;27;20209;-74
2022/06/04 05:23:09;;;;;;;2.65;1.50;;;22.10;99.90;;;;;;4237905;27;20629;-74
2022/06/04 05:25:13;;;;;;;2.97;1.50;;;22.10;99.90;;;;;;4246116;27;20225;-74
2022/06/04 05:27:15;;;;;;;2.88;1.60;;;22.10;99.90;;;;;;4245746;27;20242;-74
2022/06/04 05:29:17;;;;;;;1.70;1.40;;;22.10;99.90;;;;;;4246411;27;20257;-74
2022/06/04 05:31:21;;;;;;;1.80;1.50;;;22.10;99.90;;;;;;4246222;27;20270;-74
2022/06/04 05:33:24;;;;;;;1.92;1.80;;;22.10;99.90;;;;;;4246147;27;20246;-74
2022/06/04 05:35:27;;;;;;;2.58;1.67;;;22.10;99.90;;;;;;4241286;27;20233;-74
2022/06/04 05:37:29;;;;;;;2.63;1.70;;;22.10;99.90;;;;;;4246096;27;20277;-74
2022/06/04 05:39:31;;;;;;;1.70;1.50;;;22.10;99.90;;;;;;4245977;28;20242;-74
2022/06/04 05:41:34;;;;;;;1.50;1.40;;;22.10;99.90;;;;;;4246394;28;20209;-74
2022/06/04 05:43:39;;;;;;;3.25;1.80;;;22.10;99.90;;;;;;4234117;27;20258;-74
2022/06/04 05:45:41;;;;;;;1.77;1.50;;;22.10;99.90;;;;;;4246201;28;20610;-74
2022/06/04 05:47:43;;;;;;;2.60;1.60;;;22.10;99.90;;;;;;4246334;28;20258;-74
2022/06/04 05:49:47;;;;;;;1.77;1.67;;;22.10;99.90;;;;;;4246255;27;20213;-74
2022/06/04 05:51:51;;;;;;;2.00;1.65;;;22.10;99.90;;;;;;4235452;28;20238;-74
2022/06/04 05:53:54;;;;;;;1.52;1.42;;;22.10;99.90;;;;;;4243341;27;20213;-74
2022/06/04 05:55:57;;;;;;;1.63;1.50;;;22.10;99.90;;;;;;4236709;27;20229;-74
2022/06/04 05:57:59;;;;;;;1.70;1.60;;;22.10;99.90;;;;;;4239132;28;20234;-73
2022/06/04 06:00:01;;;;;;;1.60;1.42;;;22.10;99.90;;;;;;4246061;28;20216;-74
2022/06/04 06:02:04;;;;;;;2.38;1.60;;;22.10;99.90;;;;;;4245906;27;20649;-74
2022/06/04 06:04:07;;;;;;;2.60;1.63;;;22.10;99.90;;;;;;4246624;27;20213;-74
2022/06/04 06:06:14;;;;;;;1.65;1.48;;;22.10;99.80;;;;;;4240506;27;20214;-74
2022/06/04 06:08:17;;;;;;;2.13;1.30;;;22.10;99.70;;;;;;4215604;28;20211;-74
2022/06/04 06:10:20;;;;;;;1.58;1.40;;;22.10;99.90;;;;;;4215696;28;20752;-74
2022/06/04 06:12:22;;;;;;;2.45;1.40;;;22.10;99.90;;;;;;4215776;28;20222;-74
2022/06/04 06:14:25;;;;;;;1.77;1.33;;;22.10;99.90;;;;;;4209785;28;20227;-74
2022/06/04 06:16:30;;;;;;;1.50;1.40;;;22.10;99.60;;;;;;4215463;28;20241;-74
2022/06/04 06:18:32;;;;;;;1.85;1.42;;;22.10;99.50;;;;;;4215359;28;20597;-74
2022/06/04 06:20:35;;;;;;;2.65;1.55;;;22.10;99.60;;;;;;4215541;28;20263;-74
2022/06/04 06:22:39;;;;;;;1.58;1.38;;;22.10;99.60;;;;;;4215176;28;20253;-74
2022/06/04 06:24:41;;;;;;;1.95;1.48;;;22.10;99.70;;;;;;4214979;28;20222;-74
2022/06/04 06:26:46;;;;;;;1.67;1.40;;;22.10;99.30;;;;;;4215543;28;20260;-74
2022/06/04 06:28:49;;;;;;;1.77;1.40;;;22.10;99.40;;;;;;4215220;28;21116;-74
2022/06/04 06:30:57;;;;;;;1.60;1.48;;;22.10;99.70;;;;;;4215195;28;20267;-74
2022/06/04 06:32:59;;;;;;;1.42;1.33;;;22.10;99.70;;;;;;4215291;28;20214;-74
2022/06/04 06:35:02;;;;;;;2.78;1.73;;;22.10;99.70;;;;;;4215461;28;20286;-80
2022/06/04 06:37:04;;;;;;;2.28;1.45;;;22.10;99.20;;;;;;4215665;28;20731;-80
2022/06/04 06:39:09;;;;;;;2.20;1.45;;;22.10;99.40;;;;;;4215150;28;20267;-80
2022/06/04 06:41:11;;;;;;;2.05;1.60;;;22.10;99.70;;;;;;4208434;28;20218;-80
2022/06/04 06:43:13;;;;;;;1.55;1.30;;;22.20;99.60;;;;;;4203878;28;20655;-80
2022/06/04 06:45:16;;;;;;;2.00;1.42;;;22.10;99.10;;;;;;4215756;28;20264;-80
2022/06/04 06:47:18;;;;;;;1.50;1.40;;;22.20;99.20;;;;;;4215722;28;20276;-80
2022/06/04 06:49:23;;;;;;;1.67;1.40;;;22.20;98.90;;;;;;4215038;28;20609;-79
2022/06/04 06:51:28;;;;;;;2.67;1.35;;;22.20;99.40;;;;;;4214508;28;20219;-80
2022/06/04 06:53:32;;;;;;;2.78;1.55;;;22.20;99.40;;;;;;4215368;28;20314;-80
2022/06/04 06:55:35;;;;;;;1.52;1.15;;;22.20;99.10;;;;;;4204140;28;20218;-80
2022/06/04 06:57:38;;;;;;;2.22;1.50;;;22.20;98.90;;;;;;4208193;28;20214;-80
2022/06/04 06:59:43;;;;;;;1.50;1.40;;;22.20;99.10;;;;;;4215130;28;20268;-80
2022/06/04 07:01:45;;;;;;;2.30;1.48;;;22.20;99.00;;;;;;4215236;28;20268;-80
2022/06/04 07:03:49;;;;;;;1.48;1.30;;;22.20;99.40;;;;;;4215586;28;20252;-81
2022/06/04 07:05:53;;;;;;;1.95;1.63;;;22.20;99.10;;;;;;4215465;28;20211;-80
2022/06/04 07:07:56;;;;;;;1.70;1.35;;;22.20;99.10;;;;;;4244237;27;20233;-80
2022/06/04 07:09:58;;;;;;;1.40;1.17;;;22.20;99.00;;;;;;4248740;27;20205;-80
2022/06/04 07:12:02;;;;;;;2.17;1.52;;;22.20;99.10;;;;;;4241944;27;20261;-81
2022/06/04 07:14:05;;;;;;;1.38;1.20;;;22.20;99.10;;;;;;4248894;27;20557;-80
2022/06/04 07:16:07;;;;;;;2.03;1.38;;;22.20;98.90;;;;;;4239658;27;20301;-81
2022/06/04 07:18:12;;;;;;;1.73;1.52;;;22.20;98.90;;;;;;4248416;27;20269;-80
2022/06/04 07:20:14;;;;;;;2.95;1.40;;;22.20;98.90;;;;;;4249171;27;20208;-80
2022/06/04 07:22:16;;;;;;;1.50;1.40;;;22.20;98.90;;;;;;4248815;27;20262;-80
2022/06/04 07:24:19;;;;;;;2.30;1.50;;;22.30;98.80;;;;;;4248346;27;20217;-80
2022/06/04 07:26:22;;;;;;;1.50;1.40;;;22.30;98.80;;;;;;4248694;27;20213;-80
2022/06/04 07:28:25;;;;;;;1.77;1.50;;;22.30;98.70;;;;;;4248748;27;20212;-81
2022/06/04 07:30:28;;;;;;;1.42;1.30;;;22.30;98.70;;;;;;4248258;27;20600;-80
2022/06/04 07:32:30;;;;;;;1.80;1.58;;;22.30;98.70;;;;;;4248904;27;20214;-80
2022/06/04 07:34:33;;;;;;;2.67;1.40;;;22.30;98.70;;;;;;4240900;27;20267;-80
2022/06/04 07:36:37;;;;;;;2.08;1.35;;;22.30;98.70;;;;;;4244242;27;20229;-80
2022/06/04 07:38:40;;;;;;;2.00;1.20;;;22.30;98.60;;;;;;4248442;27;20213;-80
2022/06/04 07:40:42;;;;;;;2.03;1.80;;;22.30;98.70;;;;;;4248368;27;20217;-80
2022/06/04 07:42:45;;;;;;;1.80;1.38;;;22.30;98.60;;;;;;4234473;27;20213;-81
2022/06/04 07:44:49;;;;;;;1.48;1.38;;;22.40;98.70;;;;;;4246032;27;20213;-81
2022/06/04 07:46:53;;;;;;;1.52;1.40;;;22.40;98.70;;;;;;4248731;27;20217;-81
2022/06/04 07:48:56;;;;;;;1.70;1.40;;;22.40;98.70;;;;;;4248466;27;20710;-79
2022/06/04 07:50:58;;;;;;;1.85;1.38;;;22.40;98.60;;;;;;4248267;27;20251;-81
2022/06/04 07:53:00;;;;;;;1.58;1.48;;;22.40;98.60;;;;;;4248219;27;20213;-80
2022/06/04 07:55:03;;;;;;;2.38;1.52;;;22.40;98.60;;;;;;4239348;27;20265;-81
2022/06/04 07:57:06;;;;;;;1.50;1.40;;;22.40;98.70;;;;;;4248200;27;20248;-80
2022/06/04 07:59:10;;;;;;;1.70;1.38;;;22.40;98.60;;;;;;4247995;27;20969;-81
2022/06/04 08:01:16;;;;;;;2.13;1.40;;;22.50;98.70;;;;;;4248148;27;20458;-81
2022/06/04 08:03:18;;;;;;;1.98;1.48;;;22.40;98.60;;;;;;4248165;27;21057;-80
2022/06/04 08:05:20;;;;;;;1.80;1.52;;;22.40;98.60;;;;;;4248300;27;20658;-80
2022/06/04 08:07:24;;;;;;;2.38;1.60;;;22.50;98.70;;;;;;4247836;27;20648;-81
2022/06/04 08:09:26;;;;;;;2.67;1.40;;;22.50;98.60;;;;;;4247895;27;20656;-80
2022/06/04 08:11:31;;;;;;;2.20;1.27;;;22.40;98.50;;;;;;4245819;27;20205;-80
2022/06/04 08:13:34;;;;;;;2.13;1.50;;;22.50;98.60;;;;;;4247834;27;20557;-80
2022/06/04 08:15:36;;;;;;;1.42;1.33;;;22.50;98.60;;;;;;4247885;27;20209;-80
2022/06/04 08:17:40;;;;;;;1.83;1.50;;;22.50;98.60;;;;;;4247465;27;20945;-80
2022/06/04 08:19:42;;;;;;;2.30;1.40;;;22.50;98.60;;;;;;4248071;27;20265;-80
2022/06/04 08:21:46;;;;;;;1.88;1.58;;;22.60;98.70;;;;;;4247893;27;20614;-81
2022/06/04 08:23:48;;;;;;;1.50;1.23;;;22.50;98.70;;;;;;4240329;27;20615;-80
2022/06/04 08:25:52;;;;;;;2.15;1.30;;;22.50;98.60;;;;;;4237399;27;20213;-81
2022/06/04 08:27:54;;;;;;;2.05;1.42;;;22.50;98.60;;;;;;4247643;27;20206;-81
2022/06/04 08:29:56;;;;;;;1.40;1.27;;;22.50;98.60;;;;;;4235277;27;20205;-81
2022/06/04 08:31:59;;;;;;;1.33;1.20;;;22.50;98.60;;;;;;4244365;27;20205;-80
2022/06/04 08:34:03;;;;;;;1.60;1.30;;;22.60;98.60;;;;;;4239189;27;20665;-80
2022/06/04 08:36:07;;;;;;;2.00;1.30;;;22.60;98.60;;;;;;4247851;27;20217;-80
2022/06/04 08:38:09;;;;;;;2.50;1.35;;;22.50;98.60;;;;;;4247876;27;20229;-80
2022/06/04 08:40:29;;;;;;;2.15;1.20;;;22.60;98.60;;;;;;4247254;27;20213;-80
2022/06/04 08:42:44;;;;;;;1.52;1.40;;;22.60;98.70;;;;;;4235736;27;20270;-80
2022/06/04 08:44:49;;;;;;;1.80;1.40;;;22.60;98.70;;;;;;4232476;28;20214;-81
2022/06/04 08:46:55;;;;;;;2.08;1.40;;;22.60;98.70;;;;;;4246998;27;20619;-81
2022/06/04 08:49:01;;;;;;;2.20;1.55;;;22.60;98.60;;;;;;4247350;27;20217;-80
2022/06/04 08:51:11;;;;;;;3.80;1.70;;;22.60;98.70;;;;;;4247165;27;20221;-81
2022/06/04 08:53:19;;;;;;;2.00;1.50;;;22.60;98.70;;;;;;4245464;27;20216;-80
2022/06/04 08:58:27;;;;;;;1.42;1.33;;;22.60;98.60;;;;;;4222065;27;20277;-80
2022/06/04 09:00:35;;;;;;;1.85;1.50;;;22.70;98.70;;;;;;4247289;27;20213;-80
2022/06/04 09:03:05;;;;;;;1.90;1.40;;;22.70;98.70;;;;;;4247426;27;20245;-81
2022/06/04 09:05:16;;;;;;;1.73;1.50;;;22.70;98.80;;;;;;4236854;27;20269;-81
2022/06/04 09:07:24;;;;;;;1.35;1.25;;;22.70;98.80;;;;;;4247285;27;20236;-80
2022/06/04 09:09:31;;;;;;;2.45;1.52;;;22.60;98.70;;;;;;4247106;27;20273;-81
2022/06/04 09:11:44;;;;;;;1.60;1.25;;;22.70;98.80;;;;;;4247364;27;21048;-81
2022/06/04 09:13:56;;;;;;;2.50;1.58;;;22.70;98.70;;;;;;4247217;27;20273;-81
2022/06/04 09:16:06;;;;;;;1.92;1.60;;;22.70;98.70;;;;;;4246973;27;20209;-81
2022/06/04 09:18:14;;;;;;;1.65;1.33;;;22.70;98.80;;;;;;4246310;27;20232;-80
2022/06/04 09:20:27;;;;;;;1.90;1.70;;;22.70;98.80;;;;;;4246342;27;20597;-81
2022/06/04 09:22:36;;;;;;;1.52;1.40;;;22.70;98.90;;;;;;4242628;27;20265;-81
2022/06/04 09:24:39;;;;;;;1.88;1.55;;;22.70;98.80;;;;;;4247188;27;20220;-81
2022/06/04 09:26:45;;;;;;;1.75;1.45;;;22.70;98.90;;;;;;4247063;27;20258;-82
2022/06/04 09:28:59;;;;;;;1.70;1.35;;;22.70;99.00;;;;;;4246793;27;20209;-81
2022/06/04 09:31:20;;;;;;;2.22;1.52;;;22.70;98.90;;;;;;4246925;27;20209;-80
2022/06/04 09:33:42;;;;;;;1.83;1.45;;;22.70;99.00;;;;;;4246797;27;20217;-80
2022/06/04 09:35:45;;;;;;;2.00;1.38;;;22.70;99.00;;;;;;4235573;28;20221;-81
2022/06/04 09:37:50;;;;;;;2.75;1.38;;;22.80;99.00;;;;;;4246812;28;20254;-80
2022/06/04 09:40:04;;;;;;;1.75;1.50;;;22.70;98.90;;;;;;4246000;27;20649;-81
2022/06/04 09:42:21;;;;;;;1.95;1.55;;;22.80;99.00;;;;;;4238022;27;20278;-82
2022/06/04 09:44:24;;;;;;;1.60;1.48;;;22.80;99.00;;;;;;4241420;28;20305;-80
2022/06/04 09:46:27;;;;;;;1.92;1.42;;;22.80;99.10;;;;;;4246637;27;20213;-80
2022/06/04 09:48:32;;;;;;;1.95;1.50;;;22.80;99.10;;;;;;4246407;27;20217;-80
2022/06/04 09:50:37;;;;;;;1.83;1.52;;;22.80;99.00;;;;;;4239734;27;20262;-80
2022/06/04 09:52:43;;;;;;;2.47;1.80;;;22.80;99.20;;;;;;4243115;27;20217;-81
2022/06/04 09:54:53;;;;;;;2.00;1.40;;;22.80;99.00;;;;;;4246651;27;20257;-81
2022/06/04 09:57:01;;;;;;;2.75;1.60;;;22.80;99.00;;;;;;4246843;28;20254;-80
2022/06/04 09:59:10;;;;;;;1.52;1.30;;;22.90;99.40;;;;;;4246501;28;20257;-80
2022/06/04 10:01:22;;;;;;;1.90;1.60;;;22.80;99.00;;;;;;4246637;27;20216;-80
2022/06/04 10:03:30;;;;;;;2.17;1.38;;;22.80;99.10;;;;;;4246097;28;20380;-80
2022/06/04 10:05:33;;;;;;;1.48;1.38;;;22.90;99.20;;;;;;4247035;27;20222;-80
2022/06/04 10:07:38;;;;;;;1.95;1.40;;;22.90;99.10;;;;;;4246079;27;20221;-80
2022/06/04 10:09:57;;;;;;;1.65;1.30;;;22.90;99.20;;;;;;4246687;27;20244;-81
2022/06/04 10:12:03;;;;;;;1.75;1.40;;;22.90;99.30;;;;;;4246824;27;20209;-80
2022/06/04 10:14:05;;;;;;;2.03;1.58;;;22.90;99.30;;;;;;4246792;27;20595;-80
2022/06/04 10:16:15;;;;;;;2.63;1.60;;;22.80;99.30;;;;;;4246638;28;20254;-81
2022/06/04 10:18:28;;;;;;;2.67;1.77;;;22.80;99.30;;;;;;4231512;28;20237;-81
2022/06/04 10:20:31;;;;;;;1.73;1.50;;;22.80;99.30;;;;;;4243730;27;20213;-80
2022/06/04 10:22:33;;;;;;;1.42;1.33;;;22.80;99.20;;;;;;4246817;27;20239;-81
2022/06/04 10:24:42;;;;;;;1.95;1.63;;;22.80;99.30;;;;;;4246993;28;20209;-80
2022/06/04 10:27:03;;;;;;;3.10;1.48;;;22.80;99.30;;;;;;4247041;27;20216;-80
2022/06/04 10:29:22;;;;;;;2.60;1.60;;;22.80;99.40;;;;;;4246579;27;20205;-80
2022/06/04 10:31:41;;;;;;;1.85;1.40;;;22.80;99.40;;;;;;4246087;28;20258;-80
2022/06/04 10:33:52;;;;;;;1.60;1.50;;;22.80;99.50;;;;;;4244247;27;20545;-80
2022/06/04 10:36:08;;;;;;;2.00;1.42;;;22.80;99.80;;;;;;4239902;27;20266;-81
2022/06/04 10:38:24;;;;;;;1.85;1.42;;;22.80;99.50;;;;;;4242761;27;20281;-81
2022/06/04 10:40:40;;;;;;;1.75;1.50;;;22.80;99.40;;;;;;4241377;28;20213;-82
2022/06/04 10:42:52;;;;;;;1.85;1.50;;;22.80;99.50;;;;;;4242461;27;20213;-80
2022/06/04 10:45:06;;;;;;;2.38;1.80;;;22.80;99.50;;;;;;4246224;27;20220;-82
2022/06/04 10:47:19;;;;;;;1.27;1.05;;;22.80;99.50;;;;;;4233445;27;20269;-80
2022/06/04 10:49:37;;;;;;;1.88;1.58;;;22.80;99.50;;;;;;4246102;28;20606;-80
2022/06/04 10:51:51;;;;;;;3.03;1.67;;;22.80;99.50;;;;;;4246884;27;20217;-80
2022/06/04 10:54:04;;;;;;;3.38;1.60;;;22.80;99.80;;;;;;4249256;27;20209;-81
2022/06/04 10:56:15;;;;;;;1.60;1.50;;;22.80;99.50;;;;;;4245599;27;20217;-80
2022/06/04 10:58:26;;;;;;;1.58;1.48;;;22.80;99.50;;;;;;4246432;27;20274;-80
2022/06/04 11:00:35;;;;;;;1.60;1.40;;;22.80;99.60;;;;;;4249161;27;20714;-81
2022/06/04 11:02:43;;;;;;;2.10;1.60;;;22.80;99.50;;;;;;4249001;27;20217;-80
2022/06/04 11:04:50;;;;;;;2.50;1.70;;;22.90;99.60;;;;;;4237542;27;20261;-80
2022/06/04 11:06:59;;;;;;;2.03;1.50;;;22.80;99.50;;;;;;4248900;27;20237;-80
2022/06/04 11:09:06;;;;;;;2.13;1.50;;;22.90;99.60;;;;;;4248525;27;20216;-80